createdAt,value
2022-08-02T00:00:40.811Z,70
2022-08-02T00:01:26.692Z,70
2022-08-02T00:02:13.119Z,70
2022-08-02T00:02:58.608Z,69
2022-08-02T00:03:44.634Z,70
2022-08-02T00:04:30.637Z,70
2022-08-02T00:05:16.610Z,70
2022-08-02T00:06:02.696Z,70
2022-08-02T00:06:48.631Z,71
2022-08-02T00:07:39.126Z,70
2022-08-02T00:08:20.661Z,71
2022-08-02T00:09:06.688Z,71
2022-08-02T00:09:52.747Z,71
2022-08-02T00:10:39.201Z,71
2022-08-02T00:11:24.892Z,72
2022-08-02T00:12:11.036Z,72
2022-08-02T00:12:56.642Z,72
2022-08-02T00:13:42.651Z,72
2022-08-02T00:14:28.727Z,72
2022-08-02T00:15:16.025Z,72
2022-08-02T00:16:00.743Z,72
2022-08-02T00:16:46.696Z,72
2022-08-02T00:17:32.718Z,72
2022-08-02T00:18:18.684Z,72
2022-08-02T00:19:04.702Z,72
2022-08-02T00:19:50.695Z,71
2022-08-02T00:20:36.704Z,71
2022-08-02T00:21:22.807Z,72
2022-08-02T00:22:09.212Z,72
2022-08-02T00:22:54.718Z,71
2022-08-02T00:24:03.206Z,71
2022-08-02T00:25:12.697Z,70
2022-08-02T00:25:58.696Z,70
2022-08-02T00:26:44.721Z,70
2022-08-02T00:27:30.729Z,70
2022-08-02T00:28:19.527Z,70
2022-08-02T00:29:02.671Z,70
2022-08-02T00:29:52.288Z,70
2022-08-02T00:30:34.807Z,70
2022-08-02T00:31:20.693Z,70
2022-08-02T00:32:06.754Z,70
2022-08-02T00:32:52.758Z,70
2022-08-02T00:34:26.687Z,70
2022-08-02T00:35:10.766Z,70
2022-08-02T00:35:56.724Z,70
2022-08-02T00:36:42.736Z,70
2022-08-02T00:37:28.712Z,70
2022-08-02T00:38:14.772Z,70
2022-08-02T00:39:00.730Z,70
2022-08-02T00:39:46.743Z,71
2022-08-02T00:40:32.738Z,71
2022-08-02T00:41:18.752Z,71
2022-08-02T00:42:04.773Z,72
2022-08-02T00:42:50.729Z,72
2022-08-02T00:43:36.755Z,71
2022-08-02T00:44:22.859Z,71
2022-08-02T00:45:08.849Z,71
2022-08-02T00:46:02.087Z,71
2022-08-02T00:46:41.096Z,72
2022-08-02T00:47:26.758Z,71
2022-08-02T00:48:12.776Z,71
2022-08-02T00:48:58.807Z,71
2022-08-02T00:49:44.793Z,71
2022-08-02T00:50:30.786Z,71
2022-08-02T00:51:16.791Z,71
2022-08-02T00:52:02.788Z,71
2022-08-02T00:52:48.770Z,71
2022-08-02T00:53:34.815Z,71
2022-08-02T00:54:20.769Z,71
2022-08-02T00:55:06.965Z,72
2022-08-02T00:55:52.802Z,72
2022-08-02T00:56:38.845Z,72
2022-08-02T00:57:24.782Z,73
2022-08-02T00:58:10.850Z,73
2022-08-02T00:58:56.815Z,73
2022-08-02T00:59:42.783Z,73
2022-08-02T01:00:29.951Z,73
2022-08-02T01:01:14.888Z,73
2022-08-02T01:02:00.836Z,73
2022-08-02T01:02:46.810Z,73
2022-08-02T01:03:32.785Z,73
2022-08-02T01:04:18.800Z,73
2022-08-02T01:05:04.851Z,72
2022-08-02T01:06:09.086Z,72
2022-08-02T01:06:36.814Z,72
2022-08-02T01:07:22.950Z,72
2022-08-02T01:08:08.870Z,72
2022-08-02T01:08:54.793Z,71
2022-08-02T01:09:41.077Z,71
2022-08-02T01:10:26.834Z,71
2022-08-02T01:11:12.842Z,72
2022-08-02T01:12:02.622Z,71
2022-08-02T01:12:44.840Z,71
2022-08-02T01:13:30.866Z,71
2022-08-02T01:14:16.812Z,71
2022-08-02T01:15:02.908Z,71
2022-08-02T01:15:48.841Z,71
2022-08-02T01:16:34.878Z,72
2022-08-02T01:17:20.810Z,72
2022-08-02T01:18:06.868Z,72
2022-08-02T01:18:52.884Z,72
2022-08-02T01:19:38.969Z,72
2022-08-02T01:20:24.831Z,72
2022-08-02T01:21:10.833Z,72
2022-08-02T01:21:56.841Z,71
2022-08-02T01:23:01.047Z,71
2022-08-02T01:23:28.877Z,71
2022-08-02T01:24:14.890Z,72
2022-08-02T01:25:00.834Z,71
2022-08-02T01:25:46.852Z,71
2022-08-02T01:26:32.871Z,72
2022-08-02T01:27:18.839Z,72
2022-08-02T01:28:04.951Z,72
2022-08-02T01:28:50.852Z,72
2022-08-02T01:29:36.897Z,73
2022-08-02T01:30:22.978Z,73
2022-08-02T01:31:08.871Z,73
2022-08-02T01:31:54.870Z,73
2022-08-02T01:32:40.966Z,73
2022-08-02T01:33:26.913Z,73
2022-08-02T01:34:12.924Z,73
2022-08-02T01:34:58.927Z,73
2022-08-02T01:35:50.698Z,73
2022-08-02T01:36:30.863Z,73
2022-08-02T01:37:16.870Z,73
2022-08-02T01:38:02.865Z,73
2022-08-02T01:38:48.869Z,73
2022-08-02T01:39:34.952Z,73
2022-08-02T01:40:21.273Z,73
2022-08-02T01:41:06.881Z,72
2022-08-02T01:41:58.908Z,73
2022-08-02T01:42:39.002Z,73
2022-08-02T01:43:24.936Z,72
2022-08-02T01:44:10.909Z,72
2022-08-02T01:44:56.889Z,72
2022-08-02T01:45:42.943Z,72
2022-08-02T01:46:28.881Z,72
2022-08-02T01:47:14.946Z,72
2022-08-02T01:48:00.913Z,72
2022-08-02T01:48:46.893Z,72
2022-08-02T01:49:33.017Z,72
2022-08-02T01:50:18.901Z,72
2022-08-02T01:51:04.942Z,73
2022-08-02T01:51:50.935Z,73
2022-08-02T01:52:36.942Z,73
2022-08-02T01:53:23.036Z,72
2022-08-02T01:54:08.968Z,73
2022-08-02T01:54:54.966Z,73
2022-08-02T01:55:58.358Z,73
2022-08-02T01:56:26.961Z,73
2022-08-02T01:57:12.946Z,72
2022-08-02T01:57:58.942Z,72
2022-08-02T01:58:44.967Z,72
2022-08-02T01:59:30.965Z,73
2022-08-02T02:00:17.045Z,73
2022-08-02T02:01:03.025Z,72
2022-08-02T02:01:49.058Z,72
2022-08-02T02:02:35.143Z,73
2022-08-02T02:03:21.005Z,73
2022-08-02T02:04:06.978Z,72
2022-08-02T02:04:53.611Z,72
2022-08-02T02:05:39.126Z,73
2022-08-02T02:06:25.061Z,72
2022-08-02T02:07:10.971Z,73
2022-08-02T02:07:56.949Z,73
2022-08-02T02:08:43.008Z,73
2022-08-02T02:09:29.004Z,73
2022-08-02T02:10:14.946Z,73
2022-08-02T02:12:06.157Z,73
2022-08-02T02:12:33.061Z,74
2022-08-02T02:13:19.036Z,74
2022-08-02T02:14:05.045Z,74
2022-08-02T02:14:52.177Z,74
2022-08-02T02:15:36.394Z,74
2022-08-02T02:16:23.073Z,74
2022-08-02T02:17:09.010Z,74
2022-08-02T02:18:12.630Z,74
2022-08-02T02:18:41.129Z,74
2022-08-02T02:19:27.001Z,75
2022-08-02T02:20:12.985Z,75
2022-08-02T02:20:59.018Z,75
2022-08-02T02:21:45.061Z,75
2022-08-02T02:22:31.044Z,75
2022-08-02T02:23:17.014Z,74
2022-08-02T02:24:03.009Z,75
2022-08-02T02:24:49.014Z,75
2022-08-02T02:25:36.362Z,75
2022-08-02T02:26:31.532Z,75
2022-08-02T02:27:07.107Z,75
2022-08-02T02:27:53.714Z,75
2022-08-02T02:28:39.177Z,75
2022-08-02T02:29:25.025Z,75
2022-08-02T02:30:11.183Z,75
2022-08-02T02:30:57.025Z,75
2022-08-02T02:31:43.026Z,75
2022-08-02T02:32:29.027Z,75
2022-08-02T02:33:15.033Z,74
2022-08-02T02:34:01.378Z,74
2022-08-02T02:34:47.014Z,74
2022-08-02T02:35:33.044Z,74
2022-08-02T02:36:19.035Z,74
2022-08-02T02:37:05.171Z,74
2022-08-02T02:37:51.054Z,74
2022-08-02T02:38:37.076Z,73
2022-08-02T02:39:23.193Z,73
2022-08-02T02:40:09.086Z,73
2022-08-02T02:40:55.104Z,74
2022-08-02T02:41:41.135Z,74
2022-08-02T02:42:27.187Z,74
2022-08-02T02:43:13.060Z,74
2022-08-02T02:43:59.059Z,74
2022-08-02T02:44:45.038Z,74
2022-08-02T02:45:31.182Z,75
2022-08-02T02:46:17.062Z,75
2022-08-02T02:47:03.085Z,75
2022-08-02T02:47:49.039Z,75
2022-08-02T02:48:35.130Z,75
2022-08-02T02:49:21.235Z,75
2022-08-02T02:50:07.115Z,75
2022-08-02T02:50:53.672Z,75
2022-08-02T02:51:39.275Z,75
2022-08-02T02:52:25.083Z,75
2022-08-02T02:53:11.114Z,75
2022-08-02T02:54:30.383Z,75
2022-08-02T02:54:43.093Z,75
2022-08-02T02:55:29.108Z,76
2022-08-02T02:56:15.082Z,76
2022-08-02T02:57:01.078Z,76
2022-08-02T02:57:47.076Z,76
2022-08-02T02:58:33.079Z,77
2022-08-02T02:59:19.142Z,76
2022-08-02T03:00:05.168Z,77
2022-08-02T03:00:51.160Z,77
2022-08-02T03:01:56.823Z,76
2022-08-02T03:02:23.229Z,77
2022-08-02T03:03:09.220Z,77
2022-08-02T03:03:55.137Z,77
2022-08-02T03:04:57.248Z,77
2022-08-02T03:05:27.144Z,77
2022-08-02T03:06:14.826Z,77
2022-08-02T03:06:59.138Z,77
2022-08-02T03:07:45.253Z,77
2022-08-02T03:08:31.107Z,77
2022-08-02T03:09:17.108Z,76
2022-08-02T03:10:03.098Z,76
2022-08-02T03:10:49.181Z,76
2022-08-02T03:11:35.132Z,76
2022-08-02T03:12:21.193Z,76
2022-08-02T03:13:07.096Z,77
2022-08-02T03:13:53.622Z,77
2022-08-02T03:14:39.318Z,77
2022-08-02T03:15:25.230Z,77
2022-08-02T03:16:11.203Z,76
2022-08-02T03:16:57.123Z,76
2022-08-02T03:17:43.178Z,76
2022-08-02T03:18:29.225Z,76
2022-08-02T03:19:15.271Z,76
2022-08-02T03:20:01.265Z,76
2022-08-02T03:20:47.188Z,76
2022-08-02T03:21:33.266Z,76
2022-08-02T03:22:19.259Z,76
2022-08-02T03:23:05.176Z,76
2022-08-02T03:23:51.189Z,76
2022-08-02T03:24:37.135Z,77
2022-08-02T03:25:23.254Z,77
2022-08-02T03:26:09.161Z,77
2022-08-02T03:26:55.150Z,77
2022-08-02T03:27:41.254Z,77
2022-08-02T03:28:27.174Z,78
2022-08-02T03:29:13.155Z,78
2022-08-02T03:29:59.172Z,78
2022-08-02T03:30:45.251Z,78
2022-08-02T03:31:32.843Z,78
2022-08-02T03:32:17.173Z,78
2022-08-02T03:33:03.281Z,78
2022-08-02T03:33:49.202Z,78
2022-08-02T03:34:35.199Z,78
2022-08-02T03:35:24.160Z,78
2022-08-02T03:36:07.190Z,78
2022-08-02T03:36:53.776Z,78
2022-08-02T03:37:39.361Z,78
2022-08-02T03:38:40.571Z,78
2022-08-02T03:39:11.215Z,78
2022-08-02T03:39:57.194Z,78
2022-08-02T03:40:43.267Z,78
2022-08-02T03:41:29.220Z,78
2022-08-02T03:42:15.508Z,79
2022-08-02T03:43:01.196Z,79
2022-08-02T03:43:47.208Z,79
2022-08-02T03:44:33.231Z,79
2022-08-02T03:45:19.300Z,79
2022-08-02T03:46:05.226Z,79
2022-08-02T03:46:51.233Z,78
2022-08-02T03:47:37.211Z,79
2022-08-02T03:48:34.105Z,78
2022-08-02T03:49:09.312Z,78
2022-08-02T03:49:55.296Z,78
2022-08-02T03:50:41.281Z,77
2022-08-02T03:51:27.215Z,77
2022-08-02T03:52:12.986Z,77
2022-08-02T03:52:59.268Z,77
2022-08-02T03:53:45.225Z,77
2022-08-02T03:54:34.530Z,77
2022-08-02T03:55:17.212Z,77
2022-08-02T03:56:03.235Z,77
2022-08-02T03:56:49.258Z,77
2022-08-02T03:57:35.249Z,77
2022-08-02T03:58:21.242Z,77
2022-08-02T03:59:07.250Z,76
2022-08-02T03:59:53.909Z,76
2022-08-02T04:00:39.594Z,76
2022-08-02T04:01:25.401Z,76
2022-08-02T04:02:11.690Z,76
2022-08-02T04:02:57.250Z,76
2022-08-02T04:03:43.280Z,76
2022-08-02T04:04:29.296Z,76
2022-08-02T04:05:15.300Z,76
2022-08-02T04:06:04.053Z,76
2022-08-02T04:06:47.283Z,76
2022-08-02T04:08:36.410Z,76
2022-08-02T04:09:05.334Z,76
2022-08-02T04:09:51.361Z,76
2022-08-02T04:10:37.346Z,76
2022-08-02T04:11:23.440Z,76
2022-08-02T04:12:09.752Z,76
2022-08-02T04:12:55.384Z,76
2022-08-02T04:13:41.372Z,76
2022-08-02T04:14:27.325Z,76
2022-08-02T04:15:13.434Z,76
2022-08-02T04:15:59.408Z,76
2022-08-02T04:16:45.296Z,76
2022-08-02T04:17:31.396Z,76
2022-08-02T04:18:17.344Z,76
2022-08-02T04:19:03.373Z,76
2022-08-02T04:19:49.341Z,76
2022-08-02T04:20:35.443Z,76
2022-08-02T04:21:21.370Z,75
2022-08-02T04:22:07.350Z,75
2022-08-02T04:22:53.797Z,75
2022-08-02T04:23:39.507Z,75
2022-08-02T04:24:25.345Z,75
2022-08-02T04:25:17.210Z,75
2022-08-02T04:25:57.379Z,75
2022-08-02T04:26:43.346Z,75
2022-08-02T04:28:15.492Z,75
2022-08-02T04:29:01.464Z,75
2022-08-02T04:29:47.350Z,75
2022-08-02T04:30:33.521Z,75
2022-08-02T04:31:19.350Z,75
2022-08-02T04:32:05.363Z,75
2022-08-02T04:32:51.434Z,75
2022-08-02T04:33:37.369Z,75
2022-08-02T04:34:23.511Z,75
2022-08-02T04:35:20.690Z,75
2022-08-02T04:35:59.496Z,75
2022-08-02T04:36:41.443Z,75
2022-08-02T04:37:27.369Z,75
2022-08-02T04:38:13.388Z,75
2022-08-02T04:38:59.389Z,75
2022-08-02T04:39:45.403Z,75
2022-08-02T04:40:31.455Z,76
2022-08-02T04:41:17.377Z,76
2022-08-02T04:42:03.428Z,76
2022-08-02T04:42:49.442Z,76
2022-08-02T04:43:35.582Z,76
2022-08-02T04:44:21.474Z,76
2022-08-02T04:45:07.610Z,77
2022-08-02T04:45:54.194Z,77
2022-08-02T04:46:39.495Z,77
2022-08-02T04:48:01.604Z,77
2022-08-02T04:48:11.421Z,77
2022-08-02T04:48:57.424Z,78
2022-08-02T04:49:43.463Z,78
2022-08-02T04:50:29.484Z,77
2022-08-02T04:51:15.534Z,77
2022-08-02T04:52:01.454Z,77
2022-08-02T04:52:47.456Z,77
2022-08-02T04:53:33.485Z,77
2022-08-02T04:54:19.519Z,77
2022-08-02T04:55:05.544Z,77
2022-08-02T04:55:51.501Z,77
2022-08-02T04:56:37.428Z,77
2022-08-02T04:57:23.614Z,76
2022-08-02T04:58:36.977Z,77
2022-08-02T04:58:55.458Z,76
2022-08-02T04:59:41.621Z,77
2022-08-02T05:00:27.688Z,76
2022-08-02T05:01:13.521Z,76
2022-08-02T05:01:59.497Z,76
2022-08-02T05:02:45.460Z,76
2022-08-02T05:03:31.508Z,76
2022-08-02T05:04:17.510Z,76
2022-08-02T05:05:08.237Z,76
2022-08-02T05:05:49.454Z,76
2022-08-02T05:06:35.801Z,76
2022-08-02T05:07:21.452Z,76
2022-08-02T05:08:07.528Z,75
2022-08-02T05:08:54.081Z,75
2022-08-02T05:09:39.556Z,75
2022-08-02T05:10:25.464Z,75
2022-08-02T05:11:11.591Z,75
2022-08-02T05:11:57.481Z,75
2022-08-02T05:12:43.468Z,75
2022-08-02T05:13:29.508Z,75
2022-08-02T05:14:15.519Z,75
2022-08-02T05:15:01.843Z,75
2022-08-02T05:15:47.481Z,75
2022-08-02T05:16:33.553Z,75
2022-08-02T05:17:19.523Z,75
2022-08-02T05:18:05.467Z,76
2022-08-02T05:18:51.492Z,75
2022-08-02T05:19:37.485Z,75
2022-08-02T05:20:23.587Z,75
2022-08-02T05:21:09.567Z,75
2022-08-02T05:21:55.475Z,75
2022-08-02T05:22:41.561Z,75
2022-08-02T05:23:27.510Z,75
2022-08-02T05:24:13.508Z,75
2022-08-02T05:24:59.514Z,75
2022-08-02T05:25:45.501Z,75
2022-08-02T05:26:31.514Z,75
2022-08-02T05:27:21.949Z,74
2022-08-02T05:28:06.086Z,74
2022-08-02T05:28:49.527Z,74
2022-08-02T05:29:35.554Z,75
2022-08-02T05:30:21.705Z,75
2022-08-02T05:31:07.541Z,75
2022-08-02T05:31:54.163Z,75
2022-08-02T05:32:39.590Z,75
2022-08-02T05:33:25.526Z,75
2022-08-02T05:34:12.102Z,75
2022-08-02T05:34:57.514Z,75
2022-08-02T05:35:43.565Z,75
2022-08-02T05:36:29.549Z,75
2022-08-02T05:37:15.580Z,75
2022-08-02T05:38:01.592Z,75
2022-08-02T05:38:49.856Z,75
2022-08-02T05:39:33.526Z,75
2022-08-02T05:40:25.290Z,76
2022-08-02T05:41:05.609Z,76
2022-08-02T05:41:51.535Z,75
2022-08-02T05:42:37.582Z,76
2022-08-02T05:43:24.204Z,75
2022-08-02T05:44:09.705Z,76
2022-08-02T05:44:55.567Z,75
2022-08-02T05:45:41.632Z,75
2022-08-02T05:46:27.559Z,76
2022-08-02T05:47:13.619Z,76
2022-08-02T05:47:59.558Z,76
2022-08-02T05:48:45.692Z,76
2022-08-02T05:49:31.669Z,76
2022-08-02T05:50:17.572Z,76
2022-08-02T05:51:03.576Z,75
2022-08-02T05:51:49.622Z,75
2022-08-02T05:52:35.666Z,75
2022-08-02T05:53:21.609Z,75
2022-08-02T05:54:07.693Z,76
2022-08-02T05:54:54.025Z,75
2022-08-02T05:55:39.736Z,76
2022-08-02T05:56:25.620Z,75
2022-08-02T05:57:11.601Z,75
2022-08-02T05:57:57.625Z,75
2022-08-02T05:58:43.645Z,74
2022-08-02T05:59:29.562Z,74
2022-08-02T06:00:15.708Z,74
2022-08-02T06:01:01.642Z,74
2022-08-02T06:01:47.759Z,74
2022-08-02T06:02:33.644Z,74
2022-08-02T06:03:19.642Z,74
2022-08-02T06:04:05.663Z,74
2022-08-02T06:04:52.966Z,73
2022-08-02T06:05:37.732Z,73
2022-08-02T06:06:23.731Z,73
2022-08-02T06:07:09.710Z,73
2022-08-02T06:07:55.675Z,73
2022-08-02T06:08:44.554Z,73
2022-08-02T06:09:27.623Z,73
2022-08-02T06:10:13.629Z,72
2022-08-02T06:10:59.780Z,72
2022-08-02T06:12:10.904Z,72
2022-08-02T06:12:31.726Z,72
2022-08-02T06:13:17.702Z,71
2022-08-02T06:14:03.821Z,70
2022-08-02T06:14:52.574Z,70
2022-08-02T06:15:38.969Z,71
2022-08-02T06:16:31.681Z,71
2022-08-02T06:17:07.823Z,70
2022-08-02T06:17:54.321Z,69
2022-08-02T06:18:39.860Z,69
2022-08-02T06:19:25.942Z,69
2022-08-02T06:20:11.821Z,68
2022-08-02T06:20:57.766Z,68
2022-08-02T06:22:32.906Z,68
2022-08-02T06:23:15.818Z,66
2022-08-02T06:24:01.824Z,66
2022-08-02T06:24:47.858Z,66
2022-08-02T06:25:50.657Z,65
2022-08-02T06:26:19.831Z,65
2022-08-02T06:27:05.937Z,64
2022-08-02T06:27:51.808Z,65
2022-08-02T06:28:37.801Z,64
2022-08-02T06:29:23.934Z,64
2022-08-02T06:30:09.902Z,64
2022-08-02T06:30:55.829Z,64
2022-08-02T06:31:41.932Z,64
2022-08-02T06:32:27.798Z,63
2022-08-02T06:33:13.870Z,64
2022-08-02T06:33:59.833Z,64
2022-08-02T06:34:45.790Z,64
2022-08-02T06:35:31.828Z,64
2022-08-02T06:36:17.703Z,64
2022-08-02T06:37:03.987Z,65
2022-08-02T06:37:49.839Z,64
2022-08-02T06:38:36.016Z,65
2022-08-02T06:39:21.925Z,64
2022-08-02T06:40:07.942Z,65
2022-08-02T06:40:54.186Z,64
2022-08-02T06:41:40.034Z,65
2022-08-02T06:42:27.477Z,65
2022-08-02T06:43:11.855Z,65
2022-08-02T06:43:57.855Z,65
2022-08-02T06:44:47.981Z,65
2022-08-02T06:45:29.865Z,65
2022-08-02T06:47:09.496Z,65
2022-08-02T06:47:47.873Z,64
2022-08-02T06:48:33.898Z,64
2022-08-02T06:49:20.020Z,64
2022-08-02T06:50:06.109Z,64
2022-08-02T06:50:51.898Z,64
2022-08-02T06:51:37.866Z,64
2022-08-02T06:52:27.897Z,64
2022-08-02T06:53:09.899Z,64
2022-08-02T06:53:55.925Z,65
2022-08-02T06:54:41.875Z,64
2022-08-02T06:55:27.889Z,64
2022-08-02T06:56:13.935Z,64
2022-08-02T06:56:59.906Z,63
2022-08-02T06:57:45.959Z,63
2022-08-02T06:58:31.908Z,61
2022-08-02T06:59:17.888Z,62
2022-08-02T07:00:04.099Z,61
2022-08-02T07:00:49.957Z,62
2022-08-02T07:01:38.683Z,60
2022-08-02T07:02:21.893Z,60
2022-08-02T07:03:08.250Z,60
2022-08-02T07:03:54.188Z,60
2022-08-02T07:04:40.250Z,59
2022-08-02T07:05:25.928Z,59
2022-08-02T07:06:12.004Z,58
2022-08-02T07:06:57.909Z,58
2022-08-02T07:07:43.985Z,58
2022-08-02T07:08:32.989Z,57
2022-08-02T07:09:20.876Z,57
2022-08-02T07:10:02.121Z,57
2022-08-02T07:10:47.938Z,57
2022-08-02T07:11:34.027Z,56
2022-08-02T07:12:20.102Z,56
2022-08-02T07:13:06.018Z,55
2022-08-02T07:13:51.894Z,56
2022-08-02T07:14:37.977Z,55
2022-08-02T07:15:23.376Z,55
2022-08-02T07:16:09.996Z,55
2022-08-02T07:16:56.025Z,54
2022-08-02T07:17:41.925Z,54
2022-08-02T07:18:27.961Z,54
2022-08-02T07:19:14.006Z,53
2022-08-02T07:19:59.951Z,54
2022-08-02T07:20:45.960Z,54
2022-08-02T07:21:57.095Z,53
2022-08-02T07:22:21.153Z,53
2022-08-02T07:23:04.004Z,53
2022-08-02T07:23:49.996Z,52
2022-08-02T07:24:36.159Z,53
2022-08-02T07:25:21.186Z,53
2022-08-02T07:26:08.040Z,53
2022-08-02T07:27:09.866Z,52
2022-08-02T07:27:40.156Z,52
2022-08-02T07:28:26.015Z,52
2022-08-02T07:29:12.073Z,52
2022-08-02T07:29:58.018Z,51
2022-08-02T07:30:44.047Z,52
2022-08-02T07:31:29.977Z,51
2022-08-02T07:32:16.103Z,51
2022-08-02T07:33:02.092Z,51
2022-08-02T07:33:47.973Z,50
2022-08-02T07:34:34.006Z,50
2022-08-02T07:35:20.057Z,51
2022-08-02T07:36:06.097Z,50
2022-08-02T07:36:52.059Z,50
2022-08-02T07:37:55.339Z,50
2022-08-02T07:38:24.171Z,50
2022-08-02T07:39:10.267Z,50
2022-08-02T07:39:56.069Z,50
2022-08-02T07:40:42.105Z,50
2022-08-02T07:41:28.149Z,49
2022-08-02T07:42:14.567Z,48
2022-08-02T07:43:03.861Z,48
2022-08-02T07:43:46.080Z,48
2022-08-02T07:44:32.056Z,47
2022-08-02T07:45:18.057Z,46
2022-08-02T07:46:04.046Z,48
2022-08-02T07:46:50.079Z,48
2022-08-02T07:47:36.158Z,47
2022-08-02T07:48:21.998Z,48
2022-08-02T07:49:08.115Z,46
2022-08-02T07:49:54.300Z,46
2022-08-02T07:50:40.119Z,47
2022-08-02T07:51:26.037Z,46
2022-08-02T07:52:12.522Z,46
2022-08-02T07:52:58.231Z,46
2022-08-02T07:53:50.896Z,46
2022-08-02T07:54:30.105Z,45
2022-08-02T07:55:16.078Z,45
2022-08-02T07:56:02.212Z,45
2022-08-02T07:56:48.067Z,45
2022-08-02T07:57:34.103Z,45
2022-08-02T07:58:20.110Z,45
2022-08-02T07:59:06.177Z,45
2022-08-02T07:59:52.079Z,45
2022-08-02T08:00:38.165Z,46
2022-08-02T08:01:24.182Z,45
2022-08-02T08:02:10.445Z,44
2022-08-02T08:02:58.813Z,45
2022-08-02T08:03:42.175Z,46
2022-08-02T08:04:28.099Z,45
2022-08-02T08:05:14.069Z,46
2022-08-02T08:06:00.124Z,45
2022-08-02T08:06:46.119Z,44
2022-08-02T08:07:32.279Z,44
2022-08-02T08:08:18.088Z,43
2022-08-02T08:09:04.095Z,44
2022-08-02T08:09:50.142Z,43
2022-08-02T08:10:36.245Z,44
2022-08-02T08:11:22.190Z,42
2022-08-02T08:12:08.665Z,41
2022-08-02T08:12:54.386Z,41
2022-08-02T08:13:40.182Z,42
2022-08-02T08:14:26.279Z,41
2022-08-02T08:15:12.231Z,40
2022-08-02T08:15:58.108Z,41
2022-08-02T08:16:44.148Z,41
2022-08-02T08:17:30.130Z,41
2022-08-02T08:18:16.178Z,40
2022-08-02T08:19:02.082Z,39
2022-08-02T08:19:51.620Z,37
2022-08-02T08:20:34.168Z,37
2022-08-02T08:21:20.170Z,39
2022-08-02T08:22:06.320Z,38
2022-08-02T08:22:52.163Z,39
2022-08-02T08:23:38.088Z,40
2022-08-02T08:24:24.255Z,37
2022-08-02T08:25:10.295Z,38
2022-08-02T08:25:56.210Z,41
2022-08-02T08:26:42.387Z,41
2022-08-02T08:27:28.136Z,40
2022-08-02T08:28:14.136Z,41
2022-08-02T08:29:00.192Z,40
2022-08-02T08:29:46.347Z,40
2022-08-02T08:30:32.209Z,41
2022-08-02T08:31:18.152Z,39
2022-08-02T08:32:04.178Z,39
2022-08-02T08:32:50.218Z,37
2022-08-02T08:33:36.323Z,36
2022-08-02T08:34:22.278Z,36
2022-08-02T08:35:08.242Z,35
2022-08-02T08:35:54.369Z,34
2022-08-02T08:36:40.264Z,34
2022-08-02T08:37:26.177Z,33
2022-08-02T08:38:12.263Z,32
2022-08-02T08:38:58.168Z,32
2022-08-02T08:39:56.739Z,33
2022-08-02T08:40:30.188Z,32
2022-08-02T08:41:16.219Z,33
2022-08-02T08:42:02.208Z,34
2022-08-02T08:42:48.226Z,31
2022-08-02T08:43:34.194Z,29
2022-08-02T08:44:20.293Z,31
2022-08-02T08:45:06.360Z,32
2022-08-02T08:45:55.913Z,33
2022-08-02T08:46:39.143Z,33
2022-08-02T08:47:24.296Z,33
2022-08-02T08:48:10.223Z,33
2022-08-02T08:48:56.242Z,35
2022-08-02T08:49:52.604Z,33
2022-08-02T08:50:28.186Z,33
2022-08-02T08:51:14.221Z,33
2022-08-02T08:52:00.232Z,34
2022-08-02T08:52:46.289Z,34
2022-08-02T08:53:36.923Z,35
2022-08-02T08:54:18.437Z,36
2022-08-02T08:55:04.285Z,35
2022-08-02T08:55:50.246Z,34
2022-08-02T08:56:36.373Z,34
2022-08-02T08:57:22.223Z,35
2022-08-02T08:58:08.366Z,33
2022-08-02T08:58:54.244Z,34
2022-08-02T08:59:40.373Z,33
2022-08-02T09:00:26.295Z,35
2022-08-02T09:01:12.373Z,35
2022-08-02T09:01:58.261Z,34
2022-08-02T09:02:44.218Z,36
2022-08-02T09:03:34.102Z,34
2022-08-02T09:04:16.255Z,34
2022-08-02T09:05:02.467Z,34
2022-08-02T09:05:48.237Z,34
2022-08-02T09:06:34.269Z,34
2022-08-02T09:07:20.292Z,32
2022-08-02T09:08:06.318Z,32
2022-08-02T09:08:52.219Z,31
2022-08-02T09:09:38.403Z,31
2022-08-02T09:10:24.352Z,31
2022-08-02T09:11:10.385Z,31
2022-08-02T09:11:56.271Z,30
2022-08-02T09:12:42.450Z,30
2022-08-02T09:13:39.018Z,33
2022-08-02T09:14:14.182Z,33
2022-08-02T09:15:00.221Z,30
2022-08-02T09:15:51.250Z,30
2022-08-02T09:16:32.221Z,31
2022-08-02T09:17:18.174Z,31
2022-08-02T09:18:04.154Z,31
2022-08-02T09:18:50.237Z,30
2022-08-02T09:19:36.390Z,31
2022-08-02T09:20:22.187Z,31
2022-08-02T09:21:08.229Z,33
2022-08-02T09:21:54.262Z,32
2022-08-02T09:22:40.185Z,31
2022-08-02T09:23:26.183Z,32
2022-08-02T09:24:12.236Z,32
2022-08-02T09:24:58.184Z,34
2022-08-02T09:25:59.542Z,34
2022-08-02T09:26:30.176Z,35
2022-08-02T09:27:16.185Z,34
2022-08-02T09:28:02.268Z,36
2022-08-02T09:28:48.299Z,36
2022-08-02T09:29:34.573Z,34
2022-08-02T09:30:20.315Z,36
2022-08-02T09:31:06.247Z,34
2022-08-02T09:31:52.205Z,33
2022-08-02T09:32:38.205Z,33
2022-08-02T09:33:24.390Z,34
2022-08-02T09:34:10.195Z,34
2022-08-02T09:34:56.272Z,35
2022-08-02T09:36:07.089Z,36
2022-08-02T09:36:28.313Z,36
2022-08-02T09:37:14.219Z,37
2022-08-02T09:38:00.310Z,38
2022-08-02T09:38:46.230Z,36
2022-08-02T09:39:32.241Z,35
2022-08-02T09:40:18.217Z,34
2022-08-02T09:41:04.221Z,35
2022-08-02T09:41:50.306Z,36
2022-08-02T09:42:36.498Z,36
2022-08-02T09:43:22.309Z,35
2022-08-02T09:44:10.690Z,37
2022-08-02T09:44:54.272Z,38
2022-08-02T09:45:40.446Z,36
2022-08-02T09:46:26.317Z,37
2022-08-02T09:47:12.333Z,36
2022-08-02T09:47:58.269Z,35
2022-08-02T09:48:44.291Z,36
2022-08-02T09:49:30.321Z,36
2022-08-02T09:50:16.266Z,36
2022-08-02T09:51:02.318Z,37
2022-08-02T09:51:48.327Z,35
2022-08-02T09:52:43.033Z,35
2022-08-02T09:53:20.328Z,35
2022-08-02T09:54:08.727Z,36
2022-08-02T09:54:52.330Z,35
2022-08-02T09:55:38.325Z,36
2022-08-02T09:56:35.165Z,34
2022-08-02T09:57:10.324Z,37
2022-08-02T09:57:56.279Z,36
2022-08-02T09:58:42.411Z,35
2022-08-02T09:59:28.266Z,36
2022-08-02T10:00:23.295Z,35
2022-08-02T10:01:00.391Z,35
2022-08-02T10:01:50.536Z,33
2022-08-02T10:02:32.404Z,33
2022-08-02T10:03:21.930Z,33
2022-08-02T10:04:04.357Z,35
2022-08-02T10:04:53.536Z,33
2022-08-02T10:05:46.961Z,37
2022-08-02T10:06:22.296Z,34
2022-08-02T10:07:08.389Z,34
2022-08-02T10:07:54.349Z,33
2022-08-02T10:08:40.468Z,33
2022-08-02T10:09:26.294Z,32
2022-08-02T10:10:12.301Z,33
2022-08-02T10:10:58.405Z,35
2022-08-02T10:11:44.346Z,33
2022-08-02T10:12:51.451Z,32
2022-08-02T10:13:21.602Z,32
2022-08-02T10:14:02.372Z,34
2022-08-02T10:14:48.338Z,33
2022-08-02T10:15:34.485Z,33
2022-08-02T10:16:20.374Z,33
2022-08-02T10:17:06.335Z,33
2022-08-02T10:17:52.387Z,34
2022-08-02T10:18:40.477Z,33
2022-08-02T10:20:00.532Z,33
2022-08-02T10:20:10.456Z,33
2022-08-02T10:20:56.484Z,34
2022-08-02T10:21:46.503Z,34
2022-08-02T10:22:28.499Z,32
2022-08-02T10:23:14.484Z,33
2022-08-02T10:24:00.480Z,34
2022-08-02T10:24:48.326Z,33
2022-08-02T10:25:32.519Z,34
2022-08-02T10:26:18.616Z,35
2022-08-02T10:27:04.515Z,33
2022-08-02T10:28:04.648Z,34
2022-08-02T10:28:36.601Z,35
2022-08-02T10:29:22.463Z,33
2022-08-02T10:30:08.687Z,34
2022-08-02T10:30:54.491Z,34
2022-08-02T10:31:40.628Z,32
2022-08-02T10:32:26.635Z,32
2022-08-02T10:33:12.503Z,32
2022-08-02T10:33:58.443Z,33
2022-08-02T10:34:44.518Z,32
2022-08-02T10:35:30.506Z,31
2022-08-02T10:36:16.547Z,33
2022-08-02T10:37:02.553Z,33
2022-08-02T10:37:48.536Z,32
2022-08-02T10:38:34.517Z,31
2022-08-02T10:39:20.552Z,31
2022-08-02T10:40:06.573Z,32
2022-08-02T10:40:52.557Z,31
2022-08-02T10:41:38.570Z,31
2022-08-02T10:42:24.768Z,31
2022-08-02T10:43:10.559Z,31
2022-08-02T10:43:56.570Z,32
2022-08-02T10:44:42.639Z,32
2022-08-02T10:45:28.604Z,32
2022-08-02T10:46:14.612Z,31
2022-08-02T10:47:00.578Z,32
2022-08-02T10:47:46.558Z,32
2022-08-02T10:48:32.576Z,31
2022-08-02T10:49:38.599Z,31
2022-08-02T10:50:04.601Z,29
2022-08-02T10:50:50.621Z,29
2022-08-02T10:51:38.619Z,29
2022-08-02T10:52:22.597Z,29
2022-08-02T10:53:08.602Z,29
2022-08-02T10:53:54.613Z,30
2022-08-02T10:54:40.646Z,29
2022-08-02T10:55:26.696Z,29
2022-08-02T10:56:12.662Z,30
2022-08-02T10:56:58.573Z,29
2022-08-02T10:57:48.727Z,29
2022-08-02T10:58:30.549Z,30
2022-08-02T10:59:16.603Z,30
2022-08-02T11:00:02.809Z,30
2022-08-02T11:00:48.648Z,31
2022-08-02T11:01:38.547Z,30